Time;durP1;ratioP1;P1;durP2;ratioP2;P2;SDS_P1;SDS_P2;PMS_P1;PMS_P2;Temp;Humidity;BMP_temperature;BMP_pressure;BME280_temperature;BME280_humidity;BME280_pressure;Samples;Min_cycle;Max_cycle;Signal;HPM_P1;HPM_P2
2021/03/22 00:02:22;;;;;;;14.70;3.73;;;3.40;99.90;;;;;;5044027;28;20665;-73
2021/03/22 00:04:48;;;;;;;11.93;3.10;;;3.40;99.90;;;;;;5040215;28;20271;-73
2021/03/22 00:07:14;;;;;;;13.33;4.33;;;3.30;99.90;;;;;;5037950;28;20177;-74
2021/03/22 00:09:39;;;;;;;12.57;4.77;;;3.20;99.90;;;;;;5042562;28;20172;-73
2021/03/22 00:12:06;;;;;;;6.10;4.47;;;3.20;99.90;;;;;;5041034;28;20201;-73
2021/03/22 00:14:31;;;;;;;10.13;3.70;;;3.20;99.90;;;;;;5039632;28;20183;-73
2021/03/22 00:16:57;;;;;;;12.47;3.90;;;3.20;99.90;;;;;;5041321;28;20452;-73
2021/03/22 00:19:22;;;;;;;10.73;3.50;;;3.20;99.90;;;;;;5041530;28;20482;-73
2021/03/22 00:21:48;;;;;;;12.97;3.53;;;3.20;99.90;;;;;;5042930;28;20212;-74
2021/03/22 00:24:14;;;;;;;16.33;4.13;;;3.20;99.90;;;;;;5037275;28;20212;-73
2021/03/22 00:26:39;;;;;;;20.30;3.50;;;3.20;99.90;;;;;;5038238;28;20222;-74
2021/03/22 00:29:05;;;;;;;10.20;3.13;;;3.10;99.90;;;;;;5042394;28;20240;-73
2021/03/22 00:31:31;;;;;;;11.57;3.20;;;3.10;99.90;;;;;;5041030;28;20188;-73
2021/03/22 00:33:57;;;;;;;8.80;3.27;;;3.00;99.90;;;;;;5040263;28;20245;-73
2021/03/22 00:36:24;;;;;;;19.87;3.60;;;2.90;99.90;;;;;;5042534;28;20219;-73
2021/03/22 00:38:50;;;;;;;25.00;3.57;;;2.90;99.90;;;;;;5044120;28;20749;-73
2021/03/22 00:41:15;;;;;;;8.93;2.90;;;2.80;99.90;;;;;;5041892;28;20439;-73
2021/03/22 00:43:41;;;;;;;6.03;2.53;;;2.80;99.90;;;;;;5037913;28;20207;-73
2021/03/22 00:46:06;;;;;;;19.93;4.90;;;2.80;99.90;;;;;;5036873;28;20188;-73
2021/03/22 00:48:34;;;;;;;2.63;2.43;;;2.80;99.90;;;;;;5040510;28;20174;-73
2021/03/22 00:51:04;;;;;;;8.03;3.50;;;2.70;99.90;;;;;;5038310;28;20199;-74
2021/03/22 00:53:30;;;;;;;13.40;2.70;;;2.70;99.90;;;;;;5040103;28;20451;-74
2021/03/22 00:55:55;;;;;;;14.30;3.00;;;2.70;99.90;;;;;;5036460;28;20463;-73
2021/03/22 00:58:21;;;;;;;15.20;3.50;;;2.70;99.90;;;;;;5041887;28;20190;-73
2021/03/22 01:00:50;;;;;;;13.07;3.30;;;2.60;99.90;;;;;;5038354;28;20177;-73
2021/03/22 01:03:29;;;;;;;6.33;2.63;;;2.60;99.90;;;;;;5040491;28;20183;-73
2021/03/22 01:05:55;;;;;;;15.80;3.57;;;2.60;99.90;;;;;;5037798;28;20464;-73
2021/03/22 01:08:23;;;;;;;12.27;2.90;;;2.60;99.90;;;;;;5038364;28;20437;-73
2021/03/22 01:10:55;;;;;;;11.83;4.10;;;2.50;99.90;;;;;;5039951;28;20474;-73
2021/03/22 01:13:25;;;;;;;4.40;3.00;;;2.50;99.90;;;;;;5042338;28;20456;-73
2021/03/22 01:15:52;;;;;;;9.93;2.50;;;2.50;99.90;;;;;;5037341;28;20544;-74
2021/03/22 01:18:22;;;;;;;13.53;3.90;;;2.50;99.90;;;;;;5022535;28;20479;-74
2021/03/22 01:20:53;;;;;;;11.53;3.53;;;2.50;99.90;;;;;;5022394;28;20454;-73
2021/03/22 01:23:18;;;;;;;12.43;2.73;;;2.40;99.90;;;;;;5022547;28;20500;-73
2021/03/22 01:25:44;;;;;;;8.37;3.43;;;2.40;99.90;;;;;;5022002;28;20436;-73
2021/03/22 01:28:12;;;;;;;7.93;2.87;;;2.30;99.90;;;;;;5022733;28;20443;-73
2021/03/22 01:30:43;;;;;;;20.67;3.53;;;2.40;99.90;;;;;;5022927;28;20515;-73
2021/03/22 01:33:14;;;;;;;11.93;3.23;;;2.40;99.90;;;;;;5022689;28;20421;-73
2021/03/22 01:35:40;;;;;;;10.27;3.73;;;2.40;99.90;;;;;;5022399;28;20494;-73
2021/03/22 01:38:06;;;;;;;10.00;2.70;;;2.30;99.90;;;;;;5023167;28;20437;-73
2021/03/22 01:41:17;;;;;;;6.03;3.30;;;2.30;99.90;;;;;;5021893;28;20198;-73
2021/03/22 01:43:52;;;;;;;10.83;2.77;;;2.30;99.90;;;;;;5020314;28;20507;-73
2021/03/22 01:46:18;;;;;;;6.43;2.40;;;2.20;99.90;;;;;;5022128;28;20430;-74
2021/03/22 01:48:43;;;;;;;10.93;2.73;;;2.20;99.90;;;;;;5022094;28;20506;-73
2021/03/22 01:51:09;;;;;;;11.80;3.20;;;2.20;99.90;;;;;;5021991;28;20186;-73
2021/03/22 01:53:35;;;;;;;7.03;2.70;;;2.20;99.90;;;;;;5019786;28;20205;-74
2021/03/22 01:56:08;;;;;;;14.83;4.07;;;2.20;99.90;;;;;;5021613;28;20453;-74
2021/03/22 01:58:34;;;;;;;5.40;2.23;;;2.20;99.90;;;;;;5021974;28;20449;-73
2021/03/22 02:00:59;;;;;;;8.20;2.90;;;2.20;99.90;;;;;;5021568;28;20900;-74
2021/03/22 02:03:25;;;;;;;9.40;2.80;;;2.10;99.90;;;;;;5021920;28;20278;-74
2021/03/22 02:05:51;;;;;;;6.20;2.50;;;2.10;99.90;;;;;;5020850;28;20192;-74
2021/03/22 02:08:27;;;;;;;6.10;2.13;;;2.10;99.90;;;;;;5020457;28;20219;-73
2021/03/22 02:10:52;;;;;;;12.67;3.07;;;2.10;99.90;;;;;;5022464;28;20514;-74
2021/03/22 02:13:23;;;;;;;10.37;2.60;;;2.10;99.90;;;;;;5021458;28;20425;-74
2021/03/22 02:15:52;;;;;;;9.87;2.70;;;2.10;99.90;;;;;;5021617;28;20219;-73
2021/03/22 02:18:32;;;;;;;9.57;3.43;;;2.10;99.90;;;;;;5022667;28;20414;-74
2021/03/22 02:21:30;;;;;;;11.07;3.40;;;2.10;99.90;;;;;;5020896;28;20936;-73
2021/03/22 02:24:24;;;;;;;13.13;3.40;;;2.10;99.90;;;;;;5020980;28;20417;-73
2021/03/22 02:27:08;;;;;;;9.20;3.40;;;2.20;99.90;;;;;;5010412;28;20434;-74
2021/03/22 02:29:43;;;;;;;9.83;2.90;;;2.10;99.90;;;;;;5021850;28;20425;-74
2021/03/22 02:32:17;;;;;;;8.63;3.03;;;2.10;99.90;;;;;;5022587;28;20425;-74
2021/03/22 02:34:45;;;;;;;24.23;5.57;;;2.20;99.90;;;;;;5021037;28;20518;-74
2021/03/22 02:37:32;;;;;;;10.43;2.87;;;2.20;99.90;;;;;;5022198;28;20574;-74
2021/03/22 02:39:58;;;;;;;14.10;3.00;;;2.30;99.90;;;;;;5026572;28;20747;-74
2021/03/22 02:42:26;;;;;;;14.53;4.93;;;2.30;99.90;;;;;;5027539;28;20439;-73
2021/03/22 02:44:52;;;;;;;7.17;2.93;;;2.30;99.90;;;;;;5027439;28;20175;-74
2021/03/22 02:47:26;;;;;;;17.57;4.63;;;2.30;99.90;;;;;;5028633;28;20505;-74
2021/03/22 02:49:53;;;;;;;9.50;3.33;;;2.30;99.90;;;;;;5028481;28;20234;-74
2021/03/22 02:52:49;;;;;;;13.43;3.63;;;2.30;99.90;;;;;;5025953;28;20490;-74
2021/03/22 02:56:02;;;;;;;16.10;6.07;;;2.30;99.90;;;;;;5026113;28;20486;-74
2021/03/22 02:58:32;;;;;;;12.43;3.53;;;2.40;99.90;;;;;;4996382;28;20434;-74
2021/03/22 03:01:17;;;;;;;11.63;3.90;;;2.40;99.90;;;;;;5026320;28;20725;-74
2021/03/22 03:03:43;;;;;;;19.00;4.03;;;2.50;99.90;;;;;;5026352;28;20421;-74
2021/03/22 03:06:09;;;;;;;13.03;5.33;;;2.40;99.90;;;;;;5027319;28;20434;-74
2021/03/22 03:08:38;;;;;;;10.83;4.00;;;2.50;99.90;;;;;;5027576;28;20931;-74
2021/03/22 03:11:05;;;;;;;13.90;4.50;;;2.50;99.90;;;;;;5027212;28;20472;-74
2021/03/22 03:13:31;;;;;;;12.73;4.13;;;2.60;99.90;;;;;;5027980;28;20428;-74
2021/03/22 03:15:57;;;;;;;16.70;5.97;;;2.60;99.90;;;;;;5027604;28;20457;-74
2021/03/22 03:18:23;;;;;;;16.97;4.13;;;2.60;99.90;;;;;;5027374;28;20434;-74
2021/03/22 03:20:49;;;;;;;14.97;3.53;;;2.70;99.90;;;;;;5028384;28;20271;-74
2021/03/22 03:23:14;;;;;;;15.00;4.53;;;2.70;99.90;;;;;;5027207;28;20261;-74
2021/03/22 03:25:40;;;;;;;15.33;4.60;;;2.80;99.90;;;;;;5027711;28;20232;-74
2021/03/22 03:28:07;;;;;;;20.13;6.57;;;2.80;99.90;;;;;;5026701;28;20188;-73
2021/03/22 03:30:36;;;;;;;21.03;5.17;;;2.90;99.90;;;;;;5027802;28;20458;-74
2021/03/22 03:33:04;;;;;;;18.23;4.40;;;3.00;99.90;;;;;;5027704;28;20467;-74
2021/03/22 03:35:34;;;;;;;15.07;4.07;;;3.10;99.90;;;;;;5028972;28;20911;-74
2021/03/22 03:38:00;;;;;;;9.40;4.43;;;3.10;99.90;;;;;;5029216;28;20438;-74
2021/03/22 03:40:46;;;;;;;18.83;4.57;;;3.10;99.90;;;;;;5026716;28;20768;-74
2021/03/22 03:43:14;;;;;;;13.30;4.90;;;3.10;99.90;;;;;;5026752;28;20426;-73
2021/03/22 03:45:42;;;;;;;15.03;4.10;;;3.10;99.90;;;;;;5026810;28;20457;-73
2021/03/22 03:48:13;;;;;;;15.13;4.37;;;3.20;99.90;;;;;;5026985;28;20425;-75
2021/03/22 03:50:39;;;;;;;13.90;5.23;;;3.10;99.90;;;;;;5023914;28;20510;-74
2021/03/22 03:53:05;;;;;;;16.13;4.70;;;3.10;99.90;;;;;;5021439;28;20549;-74
2021/03/22 03:55:32;;;;;;;17.93;4.70;;;3.10;99.90;;;;;;5021631;28;20459;-73
2021/03/22 03:57:58;;;;;;;20.70;5.00;;;3.20;99.90;;;;;;5024450;28;20745;-73
2021/03/22 04:00:30;;;;;;;10.27;4.50;;;3.30;99.90;;;;;;5023600;28;20472;-73
2021/03/22 04:02:58;;;;;;;9.80;4.00;;;3.30;99.90;;;;;;5024707;28;20451;-73
2021/03/22 04:05:26;;;;;;;18.87;5.20;;;3.30;99.90;;;;;;5022981;28;20458;-73
2021/03/22 04:07:52;;;;;;;12.50;5.90;;;3.30;99.90;;;;;;5024436;28;20758;-74
2021/03/22 04:10:18;;;;;;;16.03;3.77;;;3.30;99.90;;;;;;5023497;28;20448;-74
2021/03/22 04:12:44;;;;;;;13.50;4.40;;;3.50;99.90;;;;;;5024016;28;21043;-73
2021/03/22 04:15:14;;;;;;;14.73;4.97;;;3.50;99.90;;;;;;5023055;28;20546;-73
2021/03/22 04:17:42;;;;;;;22.53;5.50;;;3.60;99.90;;;;;;5023751;28;20434;-74
2021/03/22 04:20:09;;;;;;;18.97;6.00;;;3.60;99.90;;;;;;5023487;28;20493;-74
2021/03/22 04:22:35;;;;;;;7.33;4.30;;;3.50;99.90;;;;;;5022564;28;20912;-73
2021/03/22 04:25:00;;;;;;;10.93;3.90;;;3.50;99.90;;;;;;5023358;28;20427;-74
2021/03/22 04:27:26;;;;;;;14.97;4.83;;;3.50;99.90;;;;;;5024088;28;20220;-74
2021/03/22 04:29:52;;;;;;;10.17;3.97;;;3.50;99.90;;;;;;5023821;28;20185;-74
2021/03/22 04:32:17;;;;;;;17.00;5.30;;;3.50;99.90;;;;;;5024365;28;20636;-73
2021/03/22 04:34:43;;;;;;;6.80;3.73;;;3.60;99.90;;;;;;5022221;28;20571;-73
2021/03/22 04:37:09;;;;;;;15.97;4.87;;;3.50;99.90;;;;;;5022675;28;20300;-74
2021/03/22 04:39:36;;;;;;;11.80;4.47;;;3.50;99.90;;;;;;5023138;28;20212;-73
2021/03/22 04:42:02;;;;;;;9.97;4.77;;;3.60;99.90;;;;;;5023229;28;20176;-74
2021/03/22 04:44:28;;;;;;;16.83;4.77;;;3.60;99.90;;;;;;5023412;28;20440;-74
2021/03/22 04:46:53;;;;;;;16.00;5.40;;;3.70;99.90;;;;;;5021296;28;21271;-74
2021/03/22 04:49:19;;;;;;;9.67;3.87;;;3.80;99.90;;;;;;5024333;28;20527;-74
2021/03/22 04:51:44;;;;;;;25.37;4.50;;;3.70;99.90;;;;;;5023819;28;20237;-73
2021/03/22 04:54:10;;;;;;;19.33;4.90;;;3.60;99.90;;;;;;5022389;28;20638;-74
2021/03/22 04:56:36;;;;;;;15.20;5.10;;;3.70;99.90;;;;;;5022496;28;20259;-74
2021/03/22 04:59:02;;;;;;;10.27;5.10;;;3.70;99.90;;;;;;5023561;28;20258;-73
2021/03/22 05:01:28;;;;;;;13.50;4.27;;;3.80;99.90;;;;;;5022360;28;20467;-74
2021/03/22 05:03:54;;;;;;;14.70;5.33;;;3.80;99.90;;;;;;5023580;28;20931;-73
2021/03/22 05:06:19;;;;;;;9.63;4.90;;;3.80;99.90;;;;;;5021729;28;20627;-73
2021/03/22 05:08:45;;;;;;;14.73;5.03;;;3.80;99.90;;;;;;5023354;28;20518;-73
2021/03/22 05:11:11;;;;;;;15.60;5.50;;;3.80;99.90;;;;;;5023191;28;20644;-74
2021/03/22 05:13:37;;;;;;;12.97;5.53;;;3.90;99.90;;;;;;5022754;28;20248;-74
2021/03/22 05:16:03;;;;;;;17.43;5.70;;;3.80;99.90;;;;;;5022579;28;20456;-73
2021/03/22 05:18:31;;;;;;;22.03;6.83;;;3.80;99.90;;;;;;5021677;28;20180;-73
2021/03/22 05:21:01;;;;;;;11.77;5.97;;;3.80;99.90;;;;;;5022925;28;20899;-74
2021/03/22 05:23:28;;;;;;;9.67;5.50;;;3.70;99.90;;;;;;5022612;28;20441;-74
2021/03/22 05:25:56;;;;;;;14.53;4.53;;;3.80;99.90;;;;;;5021886;28;20430;-74
2021/03/22 05:28:24;;;;;;;14.10;5.43;;;3.80;99.90;;;;;;5005629;28;20447;-73
2021/03/22 05:30:50;;;;;;;12.03;5.50;;;3.80;99.90;;;;;;5021503;28;20523;-74
2021/03/22 05:33:17;;;;;;;14.53;6.50;;;3.80;99.90;;;;;;5022168;28;20845;-74
2021/03/22 05:35:45;;;;;;;20.93;6.40;;;3.80;99.90;;;;;;5020399;28;20292;-74
2021/03/22 05:38:11;;;;;;;14.90;5.83;;;3.80;99.90;;;;;;5021820;28;21344;-74
2021/03/22 05:40:48;;;;;;;17.30;5.87;;;3.70;99.90;;;;;;5022269;28;20488;-74
2021/03/22 05:43:41;;;;;;;15.80;5.03;;;3.80;99.90;;;;;;5021711;28;21049;-74
2021/03/22 05:46:23;;;;;;;16.77;5.50;;;3.90;99.90;;;;;;5019488;28;20439;-73
2021/03/22 05:48:54;;;;;;;17.90;6.53;;;4.00;99.90;;;;;;5022756;28;20896;-73
2021/03/22 05:51:20;;;;;;;12.87;5.33;;;4.00;99.90;;;;;;5022525;28;20457;-74
2021/03/22 05:53:57;;;;;;;15.83;6.37;;;4.00;99.90;;;;;;5020374;28;20449;-74
2021/03/22 05:56:34;;;;;;;20.20;6.00;;;3.90;99.90;;;;;;5023125;28;20250;-73
2021/03/22 05:59:11;;;;;;;19.07;5.33;;;4.00;99.90;;;;;;5022688;28;20884;-74
2021/03/22 06:01:45;;;;;;;18.53;5.70;;;4.00;99.90;;;;;;5023019;28;20438;-73
2021/03/22 06:04:30;;;;;;;12.33;6.17;;;3.90;99.90;;;;;;5021086;28;20420;-73
2021/03/22 06:06:57;;;;;;;15.53;5.60;;;3.90;99.90;;;;;;5021548;28;20463;-73
2021/03/22 06:09:36;;;;;;;13.53;6.10;;;3.90;99.90;;;;;;5023834;28;20443;-73
2021/03/22 06:12:07;;;;;;;16.23;6.13;;;3.90;99.90;;;;;;5021016;28;20461;-73
2021/03/22 06:14:54;;;;;;;13.67;6.37;;;4.00;99.90;;;;;;5021659;28;20433;-74
2021/03/22 06:17:38;;;;;;;15.03;7.00;;;4.00;99.90;;;;;;5021827;28;20440;-74
2021/03/22 06:20:14;;;;;;;11.50;6.13;;;4.10;99.90;;;;;;5020572;28;20516;-74
2021/03/22 06:22:39;;;;;;;13.90;6.40;;;4.10;99.90;;;;;;5022797;28;20757;-73
2021/03/22 06:25:24;;;;;;;13.63;7.13;;;4.10;99.90;;;;;;5021837;28;20664;-74
2021/03/22 06:27:53;;;;;;;17.20;7.60;;;4.20;99.90;;;;;;5022658;28;20173;-74
2021/03/22 06:30:21;;;;;;;9.60;5.70;;;4.20;99.90;;;;;;5020703;28;20569;-73
2021/03/22 06:32:50;;;;;;;10.63;6.77;;;4.30;99.90;;;;;;5005584;28;20540;-74
2021/03/22 06:35:24;;;;;;;21.83;7.40;;;4.30;99.90;;;;;;5020319;28;20501;-73
2021/03/22 06:37:49;;;;;;;15.00;6.33;;;4.30;99.90;;;;;;5022173;28;20554;-72
2021/03/22 06:40:24;;;;;;;14.33;7.20;;;4.40;99.90;;;;;;5021923;28;20458;-72
2021/03/22 06:43:08;;;;;;;19.93;7.10;;;4.40;99.90;;;;;;5018041;28;20214;-71
2021/03/22 06:45:40;;;;;;;14.40;5.77;;;4.40;99.90;;;;;;5018389;28;20439;-71
2021/03/22 06:48:20;;;;;;;20.23;7.70;;;4.50;99.90;;;;;;5022076;28;20462;-72
2021/03/22 06:50:48;;;;;;;25.60;7.70;;;4.50;99.90;;;;;;5023060;28;20468;-72
2021/03/22 06:53:40;;;;;;;16.40;7.33;;;4.50;99.90;;;;;;5021904;28;20452;-72
2021/03/22 06:56:17;;;;;;;22.27;7.97;;;4.40;99.90;;;;;;5021590;28;20448;-71
2021/03/22 06:58:44;;;;;;;16.23;7.40;;;4.50;99.90;;;;;;5020422;28;20532;-72
2021/03/22 07:01:30;;;;;;;15.83;8.10;;;4.60;99.90;;;;;;5019928;28;20462;-72
2021/03/22 07:04:18;;;;;;;18.23;8.30;;;4.60;99.90;;;;;;5022098;28;20978;-72
2021/03/22 07:06:44;;;;;;;20.00;9.40;;;4.60;99.90;;;;;;5021051;28;20432;-72
2021/03/22 07:09:30;;;;;;;18.63;8.77;;;4.70;99.90;;;;;;5021718;28;20447;-72
2021/03/22 07:11:56;;;;;;;22.20;9.17;;;4.70;99.90;;;;;;5021132;28;20232;-72
2021/03/22 07:14:27;;;;;;;16.97;8.00;;;4.70;99.90;;;;;;5020922;28;20480;-72
2021/03/22 07:17:22;;;;;;;21.40;9.17;;;4.70;99.90;;;;;;5019469;28;20581;-71
2021/03/22 07:20:18;;;;;;;22.93;8.60;;;4.80;99.90;;;;;;5020455;28;20438;-72
2021/03/22 07:22:44;;;;;;;19.03;10.30;;;4.80;99.90;;;;;;5005664;28;20459;-71
2021/03/22 07:25:45;;;;;;;14.13;7.87;;;4.90;99.90;;;;;;5022610;28;20763;-72
2021/03/22 07:28:42;;;;;;;16.23;8.07;;;4.90;99.90;;;;;;5022567;28;20437;-72
2021/03/22 07:31:30;;;;;;;16.70;8.00;;;5.00;99.90;;;;;;5018536;28;20848;-72
2021/03/22 07:34:37;;;;;;;20.43;8.37;;;5.00;99.90;;;;;;5024028;28;20525;-72
2021/03/22 07:37:30;;;;;;;18.20;6.27;;;5.20;99.90;;;;;;5024479;28;20460;-72
2021/03/22 07:40:01;;;;;;;14.57;7.67;;;5.20;99.90;;;;;;4992370;28;20436;-72
2021/03/22 07:42:50;;;;;;;12.90;6.60;;;5.20;99.90;;;;;;5023935;28;20424;-71
2021/03/22 07:45:25;;;;;;;11.77;6.60;;;5.20;99.90;;;;;;4986921;28;21407;-74
2021/03/22 07:48:12;;;;;;;13.00;6.10;;;5.10;99.90;;;;;;5023758;28;20598;-72
2021/03/22 07:50:52;;;;;;;12.90;5.80;;;5.00;99.90;;;;;;5024244;28;20432;-71
2021/03/22 07:53:40;;;;;;;9.77;5.83;;;5.10;99.90;;;;;;5023417;28;20448;-72
2021/03/22 07:56:23;;;;;;;11.70;5.77;;;5.10;99.90;;;;;;5022633;28;20456;-72
2021/03/22 07:58:51;;;;;;;11.53;5.30;;;5.20;99.90;;;;;;5024182;28;20428;-72
2021/03/22 08:01:20;;;;;;;8.80;6.60;;;5.20;99.90;;;;;;5023642;28;20524;-72
2021/03/22 08:04:16;;;;;;;12.73;6.07;;;5.30;99.90;;;;;;5024564;28;20447;-72
2021/03/22 08:06:49;;;;;;;13.23;5.93;;;5.30;99.90;;;;;;5025005;28;20435;-71
2021/03/22 08:09:47;;;;;;;19.97;5.97;;;5.30;99.90;;;;;;5023333;28;20982;-73
2021/03/22 08:12:29;;;;;;;16.93;5.00;;;5.40;99.90;;;;;;5022854;28;20440;-71
2021/03/22 08:15:14;;;;;;;10.00;5.53;;;5.50;99.90;;;;;;5023119;28;20446;-71
2021/03/22 08:17:59;;;;;;;10.37;5.87;;;5.60;99.90;;;;;;5023059;28;20575;-71
2021/03/22 08:20:35;;;;;;;15.23;6.17;;;5.60;99.90;;;;;;5024194;28;20420;-71
2021/03/22 08:23:24;;;;;;;11.63;5.73;;;5.60;99.90;;;;;;5023843;28;20925;-71
2021/03/22 08:25:52;;;;;;;8.93;5.27;;;5.60;99.90;;;;;;5023383;28;20778;-71
2021/03/22 08:28:45;;;;;;;13.33;5.60;;;5.70;99.90;;;;;;5023368;28;20443;-71
2021/03/22 08:31:25;;;;;;;10.13;5.10;;;5.70;99.90;;;;;;5021126;28;20935;-72
2021/03/22 08:34:01;;;;;;;10.50;4.67;;;5.60;99.90;;;;;;5023533;28;21115;-70
2021/03/22 08:37:02;;;;;;;9.93;5.90;;;5.70;99.90;;;;;;5022717;28;21056;-72
2021/03/22 08:39:36;;;;;;;8.90;4.17;;;5.70;99.90;;;;;;5024074;28;20918;-71
2021/03/22 08:42:11;;;;;;;6.73;4.13;;;5.70;99.90;;;;;;5012783;28;20925;-72
2021/03/22 08:44:55;;;;;;;11.13;4.07;;;5.80;99.90;;;;;;5007144;28;20442;-72
2021/03/22 08:47:40;;;;;;;10.20;4.30;;;5.80;99.90;;;;;;5005741;28;20934;-76
2021/03/22 08:50:19;;;;;;;10.83;4.70;;;5.80;99.90;;;;;;5022602;28;20432;-75
2021/03/22 08:53:17;;;;;;;7.93;3.90;;;6.00;99.90;;;;;;5022881;28;20436;-73
2021/03/22 08:56:01;;;;;;;11.20;4.43;;;6.00;99.90;;;;;;5023126;28;20456;-70
2021/03/22 08:58:29;;;;;;;7.13;4.00;;;6.20;99.90;;;;;;5022401;28;20919;-71
2021/03/22 09:01:16;;;;;;;10.37;4.57;;;6.30;99.90;;;;;;5023022;28;20444;-71
2021/03/22 09:03:45;;;;;;;12.33;3.83;;;6.20;99.90;;;;;;5021211;28;20433;-72
2021/03/22 09:06:19;;;;;;;5.37;4.53;;;6.30;99.90;;;;;;5022651;28;20507;-74
2021/03/22 09:08:51;;;;;;;7.53;3.70;;;6.20;99.90;;;;;;5022237;28;20421;-73
2021/03/22 09:11:30;;;;;;;10.03;5.10;;;6.30;99.90;;;;;;5024396;28;20432;-71
2021/03/22 09:14:16;;;;;;;7.23;3.90;;;6.50;99.90;;;;;;5022300;28;20814;-71
2021/03/22 09:16:47;;;;;;;8.97;3.87;;;6.60;99.90;;;;;;5021362;28;20468;-70
2021/03/22 09:19:13;;;;;;;4.70;3.63;;;6.60;99.90;;;;;;5022082;28;20417;-70
2021/03/22 09:21:44;;;;;;;6.10;4.00;;;6.60;99.90;;;;;;5023022;28;20906;-70
2021/03/22 09:24:42;;;;;;;6.53;4.00;;;6.70;99.90;;;;;;5022723;28;20427;-71
2021/03/22 09:27:16;;;;;;;8.43;4.70;;;6.80;99.90;;;;;;5022235;28;20439;-70
2021/03/22 09:29:47;;;;;;;11.03;6.57;;;6.90;99.90;;;;;;5022908;28;20550;-70
2021/03/22 09:32:29;;;;;;;8.47;4.13;;;7.00;99.90;;;;;;5022964;28;20517;-70
2021/03/22 09:34:57;;;;;;;9.43;4.73;;;7.10;99.90;;;;;;5023666;28;20601;-70
2021/03/22 09:38:04;;;;;;;10.63;4.40;;;7.00;99.90;;;;;;5023116;28;20508;-70
2021/03/22 09:40:30;;;;;;;5.53;4.63;;;7.00;99.90;;;;;;5021737;28;20443;-73
2021/03/22 09:43:09;;;;;;;7.97;5.13;;;7.20;99.90;;;;;;5019327;28;20436;-71
2021/03/22 09:45:53;;;;;;;6.77;4.63;;;7.40;99.90;;;;;;5020638;28;20269;-71
2021/03/22 09:48:24;;;;;;;10.23;4.20;;;7.60;99.90;;;;;;5021764;28;20438;-71
2021/03/22 09:51:11;;;;;;;8.40;4.20;;;7.60;99.90;;;;;;5020838;28;20444;-74
2021/03/22 09:53:49;;;;;;;9.43;4.13;;;7.70;99.90;;;;;;5019886;28;20456;-70
2021/03/22 09:56:38;;;;;;;10.00;5.43;;;7.90;99.90;;;;;;5021959;28;20933;-75
2021/03/22 09:59:23;;;;;;;6.93;3.37;;;8.20;99.90;;;;;;5019855;28;20425;-73
2021/03/22 10:01:49;;;;;;;10.53;3.27;;;8.30;99.90;;;;;;5022628;28;20491;-71
2021/03/22 10:04:25;;;;;;;7.77;3.53;;;8.30;99.90;;;;;;5022608;28;20881;-71
2021/03/22 10:07:03;;;;;;;14.10;3.47;;;8.20;99.90;;;;;;5021644;28;20507;-73
2021/03/22 10:09:35;;;;;;;9.67;3.10;;;8.10;99.90;;;;;;5018804;28;20514;-75
2021/03/22 10:12:17;;;;;;;8.17;3.60;;;8.20;99.90;;;;;;5018760;28;20523;-71
2021/03/22 10:14:47;;;;;;;6.43;3.50;;;8.30;99.90;;;;;;5018812;28;20429;-71
2021/03/22 10:17:27;;;;;;;9.43;3.67;;;8.50;99.90;;;;;;5022784;28;20945;-71
2021/03/22 10:20:01;;;;;;;5.47;2.90;;;8.80;99.90;;;;;;5021396;28;20753;-71
2021/03/22 10:22:27;;;;;;;6.63;2.80;;;9.10;99.90;;;;;;5020593;28;20515;-71
2021/03/22 10:24:56;;;;;;;8.13;3.13;;;9.30;99.90;;;;;;5019933;28;20483;-72
2021/03/22 10:27:29;;;;;;;7.97;3.90;;;9.30;99.90;;;;;;5021375;28;20446;-71
2021/03/22 10:30:23;;;;;;;5.60;3.40;;;9.20;99.90;;;;;;5020225;28;20501;-71
2021/03/22 10:33:00;;;;;;;6.30;3.77;;;9.40;99.90;;;;;;5007298;28;20458;-72
2021/03/22 10:35:46;;;;;;;4.80;3.30;;;9.30;99.90;;;;;;5003433;28;20464;-71
2021/03/22 10:38:25;;;;;;;6.80;3.87;;;9.10;99.90;;;;;;5020162;28;20417;-71
2021/03/22 10:40:52;;;;;;;7.73;2.93;;;9.30;99.90;;;;;;5021596;28;20429;-71
2021/03/22 10:43:23;;;;;;;5.00;3.00;;;9.30;99.90;;;;;;5020704;28;20527;-71
2021/03/22 10:45:49;;;;;;;5.73;2.73;;;9.30;99.90;;;;;;5020891;28;20490;-72
2021/03/22 10:48:26;;;;;;;4.97;2.33;;;9.30;99.90;;;;;;5021376;28;20889;-72
2021/03/22 10:51:00;;;;;;;2.73;2.00;;;9.60;99.90;;;;;;5020533;28;20182;-72
2021/03/22 10:53:26;;;;;;;10.90;4.67;;;9.70;99.90;;;;;;5021989;28;20791;-71
2021/03/22 10:55:52;;;;;;;5.40;2.57;;;9.70;99.90;;;;;;5021336;28;20457;-72
2021/03/22 10:58:26;;;;;;;4.43;2.50;;;9.90;99.90;;;;;;5022230;28;20436;-72
2021/03/22 11:01:12;;;;;;;4.20;2.20;;;10.10;99.90;;;;;;5024901;28;20893;-72
2021/03/22 11:03:38;;;;;;;4.20;2.80;;;10.20;99.90;;;;;;5024362;28;21069;-71
2021/03/22 11:06:24;;;;;;;5.50;3.13;;;10.10;99.90;;;;;;5024864;28;20437;-72
2021/03/22 11:08:56;;;;;;;3.67;3.37;;;10.10;99.90;;;;;;5024611;28;20436;-71
2021/03/22 11:11:22;;;;;;;7.20;3.40;;;10.30;99.90;;;;;;5025518;28;20440;-72
2021/03/22 11:13:49;;;;;;;4.70;3.03;;;10.30;99.90;;;;;;5024529;28;20435;-72
2021/03/22 11:16:37;;;;;;;6.17;3.03;;;10.20;99.90;;;;;;5024876;28;20615;-73
2021/03/22 11:19:23;;;;;;;4.33;2.27;;;10.20;99.90;;;;;;5025594;28;20429;-73
2021/03/22 11:21:49;;;;;;;10.67;3.50;;;10.50;99.90;;;;;;5024600;28;20425;-72
2021/03/22 11:24:31;;;;;;;5.10;3.77;;;10.80;99.90;;;;;;5024960;28;20435;-72
2021/03/22 11:26:59;;;;;;;5.80;2.87;;;11.00;99.90;;;;;;5023343;28;20512;-73
2021/03/22 11:29:25;;;;;;;4.83;2.80;;;11.00;99.90;;;;;;5024185;28;21089;-72
2021/03/22 11:31:57;;;;;;;2.73;2.33;;;10.80;99.90;;;;;;5023234;28;20527;-72
2021/03/22 11:34:30;;;;;;;6.00;2.90;;;10.60;99.90;;;;;;5021697;28;20750;-72
2021/03/22 11:37:21;;;;;;;2.80;2.33;;;10.70;99.90;;;;;;5025019;28;20457;-72
2021/03/22 11:40:07;;;;;;;3.80;3.40;;;11.20;99.90;;;;;;5023059;28;20424;-73
2021/03/22 11:42:58;;;;;;;3.07;2.77;;;11.30;99.90;;;;;;5008891;28;20954;-72
2021/03/22 11:45:33;;;;;;;4.53;2.13;;;11.10;99.90;;;;;;5024041;28;20432;-72
2021/03/22 11:48:00;;;;;;;4.20;2.20;;;10.80;99.90;;;;;;5014155;28;20432;-73
2021/03/22 11:50:31;;;;;;;4.53;2.60;;;10.70;99.90;;;;;;5024302;28;20801;-72
2021/03/22 11:53:19;;;;;;;4.30;2.17;;;11.00;99.90;;;;;;5006235;28;20490;-72
2021/03/22 11:55:54;;;;;;;5.37;3.40;;;10.80;99.90;;;;;;5024467;28;20452;-75
2021/03/22 11:58:43;;;;;;;4.97;2.93;;;10.90;99.90;;;;;;5023960;28;20431;-73
2021/03/22 12:01:16;;;;;;;5.20;2.83;;;10.80;99.90;;;;;;5026020;28;20429;-73
2021/03/22 12:03:42;;;;;;;2.83;2.40;;;10.90;99.90;;;;;;5021863;28;20819;-73
2021/03/22 12:06:14;;;;;;;4.17;3.20;;;11.10;99.90;;;;;;5023073;28;20463;-74
2021/03/22 12:08:43;;;;;;;9.30;3.60;;;11.30;99.90;;;;;;5024040;28;20429;-72
2021/03/22 12:11:17;;;;;;;3.20;2.90;;;11.30;99.90;;;;;;5021593;28;20441;-75
2021/03/22 12:13:46;;;;;;;4.63;3.60;;;11.20;99.90;;;;;;5022975;28;20436;-73
2021/03/22 12:16:18;;;;;;;3.83;3.30;;;11.10;99.90;;;;;;5007750;28;20473;-72
2021/03/22 12:18:45;;;;;;;3.50;2.97;;;11.00;99.90;;;;;;5024358;28;20429;-72
2021/03/22 12:21:12;;;;;;;7.37;3.23;;;11.20;99.90;;;;;;5025438;28;20855;-73
2021/03/22 12:23:38;;;;;;;5.40;2.90;;;11.40;99.90;;;;;;5022058;28;20829;-73
2021/03/22 12:26:04;;;;;;;5.00;2.90;;;11.40;99.90;;;;;;5023291;28;20452;-75
2021/03/22 12:28:31;;;;;;;3.10;2.90;;;11.10;99.90;;;;;;5021378;28;20515;-73
2021/03/22 12:30:57;;;;;;;7.93;3.00;;;10.90;99.90;;;;;;5022346;28;20830;-73
2021/03/22 12:33:28;;;;;;;9.07;2.83;;;11.00;99.90;;;;;;5025046;28;20432;-73
2021/03/22 12:35:54;;;;;;;3.80;2.50;;;10.90;99.90;;;;;;5024413;28;20453;-73
2021/03/22 12:38:20;;;;;;;4.73;2.30;;;10.80;99.90;;;;;;5024886;28;20495;-73
2021/03/22 12:40:46;;;;;;;4.20;2.50;;;10.60;99.90;;;;;;5025819;28;20431;-73
2021/03/22 12:43:30;;;;;;;5.27;2.80;;;10.40;99.90;;;;;;5024649;28;20467;-73
2021/03/22 12:45:57;;;;;;;3.60;2.90;;;10.40;99.90;;;;;;5024125;28;20510;-74
2021/03/22 12:48:23;;;;;;;7.73;2.40;;;10.80;99.90;;;;;;5024247;28;20891;-73
2021/03/22 12:50:49;;;;;;;2.57;2.37;;;11.40;99.90;;;;;;5024025;28;20434;-73
2021/03/22 12:53:15;;;;;;;4.47;2.23;;;11.80;99.90;;;;;;5026049;28;20523;-72
2021/03/22 12:55:41;;;;;;;3.23;2.23;;;11.80;99.90;;;;;;5023528;28;20469;-73
2021/03/22 12:58:36;;;;;;;4.23;2.37;;;11.70;99.90;;;;;;5023376;28;20432;-72
2021/03/22 13:01:02;;;;;;;2.10;1.70;;;11.40;99.90;;;;;;5011294;28;20795;-73
2021/03/22 13:03:29;;;;;;;3.83;2.00;;;11.20;99.90;;;;;;5023969;28;20436;-73
2021/03/22 13:05:55;;;;;;;4.70;2.03;;;11.10;99.90;;;;;;5023239;28;20225;-73
2021/03/22 13:08:30;;;;;;;7.60;2.00;;;11.20;99.90;;;;;;5023600;28;20495;-73
2021/03/22 13:10:57;;;;;;;4.13;1.90;;;11.40;99.90;;;;;;5024179;28;20425;-73
2021/03/22 13:13:23;;;;;;;3.37;1.90;;;11.30;99.90;;;;;;5024280;28;20463;-73
2021/03/22 13:15:51;;;;;;;2.60;1.90;;;11.30;99.90;;;;;;5022740;28;20638;-72
2021/03/22 13:18:20;;;;;;;6.17;2.90;;;11.20;99.90;;;;;;5023538;28;20434;-72
2021/03/22 13:20:51;;;;;;;4.40;2.03;;;11.40;99.90;;;;;;5020933;28;20460;-74
2021/03/22 13:23:18;;;;;;;3.93;1.70;;;11.40;99.90;;;;;;5021187;28;20437;-73